sensor_id;sensor_type;location;lat;lon;timestamp;temperature;humidity
21834;DHT22;11079;51.092;3.458;2023-06-14T00:10:24;20.70;99.90
21834;DHT22;11079;51.092;3.458;2023-06-14T00:13:32;20.70;99.90
21834;DHT22;11079;51.092;3.458;2023-06-14T00:16:03;20.60;99.90
21834;DHT22;11079;51.092;3.458;2023-06-14T00:18:32;20.60;99.90
21834;DHT22;11079;51.092;3.458;2023-06-14T00:21:01;20.70;99.90
21834;DHT22;11079;51.092;3.458;2023-06-14T00:23:29;20.80;99.90
21834;DHT22;11079;51.092;3.458;2023-06-14T00:32:05;20.60;99.90
21834;DHT22;11079;51.092;3.458;2023-06-14T00:42:05;20.40;99.90
21834;DHT22;11079;51.092;3.458;2023-06-14T00:44:27;20.30;99.90
21834;DHT22;11079;51.092;3.458;2023-06-14T01:13:43;19.90;99.90
21834;DHT22;11079;51.092;3.458;2023-06-14T01:19:15;19.80;99.90
21834;DHT22;11079;51.092;3.458;2023-06-14T01:22:08;19.80;99.90
21834;DHT22;11079;51.092;3.458;2023-06-14T01:24:43;19.70;99.90
21834;DHT22;11079;51.092;3.458;2023-06-14T01:27:14;19.70;99.90
21834;DHT22;11079;51.092;3.458;2023-06-14T01:29:42;19.70;99.90
21834;DHT22;11079;51.092;3.458;2023-06-14T01:32:27;19.70;99.90
21834;DHT22;11079;51.092;3.458;2023-06-14T01:35:46;19.70;99.90
21834;DHT22;11079;51.092;3.458;2023-06-14T01:38:25;19.70;99.90
21834;DHT22;11079;51.092;3.458;2023-06-14T01:41:31;19.70;99.90
21834;DHT22;11079;51.092;3.458;2023-06-14T01:44:16;19.50;99.90
21834;DHT22;11079;51.092;3.458;2023-06-14T01:47:06;19.50;99.90
21834;DHT22;11079;51.092;3.458;2023-06-14T01:49:35;19.50;99.90
21834;DHT22;11079;51.092;3.458;2023-06-14T01:52:02;19.40;99.90
21834;DHT22;11079;51.092;3.458;2023-06-14T01:54:44;19.40;99.90
21834;DHT22;11079;51.092;3.458;2023-06-14T01:57:13;19.30;99.90
21834;DHT22;11079;51.092;3.458;2023-06-14T02:05:30;19.30;99.90
21834;DHT22;11079;51.092;3.458;2023-06-14T02:08:21;19.40;99.90
21834;DHT22;11079;51.092;3.458;2023-06-14T02:10:54;19.30;99.90
21834;DHT22;11079;51.092;3.458;2023-06-14T02:14:44;19.20;99.90
21834;DHT22;11079;51.092;3.458;2023-06-14T02:20:36;19.00;99.90
21834;DHT22;11079;51.092;3.458;2023-06-14T02:23:50;19.10;99.90
21834;DHT22;11079;51.092;3.458;2023-06-14T02:26:32;19.20;99.90
21834;DHT22;11079;51.092;3.458;2023-06-14T02:29:23;19.20;99.90
21834;DHT22;11079;51.092;3.458;2023-06-14T02:31:52;19.10;99.90
21834;DHT22;11079;51.092;3.458;2023-06-14T02:34:18;18.90;99.90
21834;DHT22;11079;51.092;3.458;2023-06-14T02:36:56;19.10;99.90
21834;DHT22;11079;51.092;3.458;2023-06-14T02:42:19;18.80;99.90
21834;DHT22;11079;51.092;3.458;2023-06-14T02:45:23;18.80;99.90
21834;DHT22;11079;51.092;3.458;2023-06-14T02:48:05;18.80;99.90
21834;DHT22;11079;51.092;3.458;2023-06-14T02:50:36;18.70;99.90
21834;DHT22;11079;51.092;3.458;2023-06-14T02:53:06;18.80;99.90
21834;DHT22;11079;51.092;3.458;2023-06-14T02:55:35;18.80;99.90
21834;DHT22;11079;51.092;3.458;2023-06-14T02:58:07;18.50;99.90
21834;DHT22;11079;51.092;3.458;2023-06-14T03:00:48;18.40;99.90
21834;DHT22;11079;51.092;3.458;2023-06-14T03:03:21;18.50;99.90
21834;DHT22;11079;51.092;3.458;2023-06-14T03:06:18;18.60;99.90
21834;DHT22;11079;51.092;3.458;2023-06-14T03:09:01;18.60;99.90
21834;DHT22;11079;51.092;3.458;2023-06-14T03:11:31;18.60;99.90
21834;DHT22;11079;51.092;3.458;2023-06-14T03:14:00;18.60;99.90
21834;DHT22;11079;51.092;3.458;2023-06-14T03:16:35;18.60;99.90
21834;DHT22;11079;51.092;3.458;2023-06-14T03:19:02;18.50;99.90
21834;DHT22;11079;51.092;3.458;2023-06-14T03:21:29;18.50;99.90
21834;DHT22;11079;51.092;3.458;2023-06-14T03:24:00;18.40;99.90
21834;DHT22;11079;51.092;3.458;2023-06-14T03:26:33;18.40;99.90
21834;DHT22;11079;51.092;3.458;2023-06-14T03:29:20;18.30;99.90
21834;DHT22;11079;51.092;3.458;2023-06-14T03:32:01;18.30;99.90
21834;DHT22;11079;51.092;3.458;2023-06-14T03:34:27;18.40;99.90
21834;DHT22;11079;51.092;3.458;2023-06-14T03:37:00;18.50;99.90
21834;DHT22;11079;51.092;3.458;2023-06-14T03:39:38;18.50;99.90
21834;DHT22;11079;51.092;3.458;2023-06-14T03:42:13;18.30;99.90
21834;DHT22;11079;51.092;3.458;2023-06-14T03:44:47;18.40;99.90
21834;DHT22;11079;51.092;3.458;2023-06-14T03:47:18;18.40;99.90
21834;DHT22;11079;51.092;3.458;2023-06-14T03:49:56;18.40;99.90
21834;DHT22;11079;51.092;3.458;2023-06-14T03:52:57;18.30;99.90
21834;DHT22;11079;51.092;3.458;2023-06-14T03:55:56;18.50;99.90
21834;DHT22;11079;51.092;3.458;2023-06-14T03:58:59;18.50;99.90
21834;DHT22;11079;51.092;3.458;2023-06-14T04:01:28;18.40;99.90
21834;DHT22;11079;51.092;3.458;2023-06-14T04:04:09;18.30;99.90
21834;DHT22;11079;51.092;3.458;2023-06-14T04:06:43;18.50;99.90
21834;DHT22;11079;51.092;3.458;2023-06-14T04:09:24;18.40;99.90
21834;DHT22;11079;51.092;3.458;2023-06-14T04:12:34;18.50;99.90
21834;DHT22;11079;51.092;3.458;2023-06-14T04:15:25;18.50;99.90
21834;DHT22;11079;51.092;3.458;2023-06-14T04:17:55;18.50;99.90
21834;DHT22;11079;51.092;3.458;2023-06-14T04:20:28;18.60;99.90
21834;DHT22;11079;51.092;3.458;2023-06-14T04:23:10;18.70;99.90
21834;DHT22;11079;51.092;3.458;2023-06-14T04:26:30;18.80;99.90
21834;DHT22;11079;51.092;3.458;2023-06-14T04:29:08;18.90;99.90
21834;DHT22;11079;51.092;3.458;2023-06-14T04:31:34;18.90;99.90
21834;DHT22;11079;51.092;3.458;2023-06-14T04:34:10;18.90;99.90
21834;DHT22;11079;51.092;3.458;2023-06-14T04:36:50;19.10;99.90
21834;DHT22;11079;51.092;3.458;2023-06-14T04:44:55;19.50;99.90
21834;DHT22;11079;51.092;3.458;2023-06-14T04:47:31;19.60;99.90
21834;DHT22;11079;51.092;3.458;2023-06-14T04:52:55;20.40;99.90
21834;DHT22;11079;51.092;3.458;2023-06-14T04:55:32;21.30;99.90
21834;DHT22;11079;51.092;3.458;2023-06-14T04:58:05;22.00;99.90
21834;DHT22;11079;51.092;3.458;2023-06-14T05:00:34;22.50;99.90
21834;DHT22;11079;51.092;3.458;2023-06-14T05:03:00;23.00;99.90
21834;DHT22;11079;51.092;3.458;2023-06-14T05:05:28;23.40;99.90
21834;DHT22;11079;51.092;3.458;2023-06-14T05:08:17;24.00;99.90
21834;DHT22;11079;51.092;3.458;2023-06-14T05:10:45;24.40;99.90
21834;DHT22;11079;51.092;3.458;2023-06-14T05:13:20;24.80;99.90
21834;DHT22;11079;51.092;3.458;2023-06-14T05:15:53;25.00;99.90
21834;DHT22;11079;51.092;3.458;2023-06-14T05:18:39;25.30;99.90
21834;DHT22;11079;51.092;3.458;2023-06-14T05:21:47;25.50;99.90
21834;DHT22;11079;51.092;3.458;2023-06-14T05:24:14;25.90;99.90
21834;DHT22;11079;51.092;3.458;2023-06-14T05:27:29;26.10;99.90
21834;DHT22;11079;51.092;3.458;2023-06-14T05:30:18;26.00;99.90
21834;DHT22;11079;51.092;3.458;2023-06-14T05:32:59;26.50;99.90
21834;DHT22;11079;51.092;3.458;2023-06-14T05:35:35;26.90;99.90
21834;DHT22;11079;51.092;3.458;2023-06-14T05:38:22;27.10;99.90
21834;DHT22;11079;51.092;3.458;2023-06-14T05:43:56;27.50;99.90
21834;DHT22;11079;51.092;3.458;2023-06-14T05:46:41;27.50;99.90
21834;DHT22;11079;51.092;3.458;2023-06-14T05:49:09;27.40;99.90
21834;DHT22;11079;51.092;3.458;2023-06-14T05:51:38;27.70;99.90
21834;DHT22;11079;51.092;3.458;2023-06-14T05:54:08;28.10;99.90
21834;DHT22;11079;51.092;3.458;2023-06-14T05:56:38;28.50;99.00
21834;DHT22;11079;51.092;3.458;2023-06-14T05:59:08;28.70;97.10
21834;DHT22;11079;51.092;3.458;2023-06-14T06:01:45;29.20;96.50
21834;DHT22;11079;51.092;3.458;2023-06-14T06:04:14;29.30;95.90
21834;DHT22;11079;51.092;3.458;2023-06-14T06:06:49;29.60;95.10
21834;DHT22;11079;51.092;3.458;2023-06-14T06:09:22;29.80;94.00
21834;DHT22;11079;51.092;3.458;2023-06-14T06:11:49;30.00;94.30
21834;DHT22;11079;51.092;3.458;2023-06-14T06:17:06;30.90;91.70
21834;DHT22;11079;51.092;3.458;2023-06-14T06:19:38;30.80;90.40
21834;DHT22;11079;51.092;3.458;2023-06-14T06:22:06;30.50;90.60
21834;DHT22;11079;51.092;3.458;2023-06-14T06:24:32;30.70;90.60
21834;DHT22;11079;51.092;3.458;2023-06-14T06:26:58;31.00;90.00
21834;DHT22;11079;51.092;3.458;2023-06-14T06:29:24;31.80;88.70
21834;DHT22;11079;51.092;3.458;2023-06-14T06:31:53;32.20;87.90
21834;DHT22;11079;51.092;3.458;2023-06-14T06:34:23;32.90;86.10
21834;DHT22;11079;51.092;3.458;2023-06-14T06:36:49;33.00;82.90
21834;DHT22;11079;51.092;3.458;2023-06-14T06:39:16;33.40;82.50
21834;DHT22;11079;51.092;3.458;2023-06-14T06:41:52;33.40;77.70
21834;DHT22;11079;51.092;3.458;2023-06-14T06:44:18;33.40;78.60
21834;DHT22;11079;51.092;3.458;2023-06-14T06:46:44;33.50;77.20
21834;DHT22;11079;51.092;3.458;2023-06-14T06:49:13;33.90;75.50
21834;DHT22;11079;51.092;3.458;2023-06-14T06:51:44;34.60;74.10
21834;DHT22;11079;51.092;3.458;2023-06-14T06:54:26;35.00;72.70
21834;DHT22;11079;51.092;3.458;2023-06-14T06:56:52;35.20;69.80
21834;DHT22;11079;51.092;3.458;2023-06-14T06:59:20;35.10;70.10
21834;DHT22;11079;51.092;3.458;2023-06-14T07:01:46;35.00;69.40
21834;DHT22;11079;51.092;3.458;2023-06-14T07:04:12;35.20;67.00
21834;DHT22;11079;51.092;3.458;2023-06-14T07:06:41;35.30;68.20
21834;DHT22;11079;51.092;3.458;2023-06-14T07:09:07;35.30;66.80
21834;DHT22;11079;51.092;3.458;2023-06-14T07:11:38;35.80;66.10
21834;DHT22;11079;51.092;3.458;2023-06-14T07:14:04;35.70;65.10
21834;DHT22;11079;51.092;3.458;2023-06-14T07:16:30;35.40;64.90
21834;DHT22;11079;51.092;3.458;2023-06-14T07:18:55;35.20;64.80
21834;DHT22;11079;51.092;3.458;2023-06-14T07:21:21;35.30;66.40
21834;DHT22;11079;51.092;3.458;2023-06-14T07:23:47;35.70;65.60
21834;DHT22;11079;51.092;3.458;2023-06-14T07:26:12;35.90;64.20
21834;DHT22;11079;51.092;3.458;2023-06-14T07:28:38;36.40;64.30
21834;DHT22;11079;51.092;3.458;2023-06-14T07:31:04;36.30;63.20
21834;DHT22;11079;51.092;3.458;2023-06-14T07:33:29;36.40;63.90
21834;DHT22;11079;51.092;3.458;2023-06-14T07:35:55;37.10;61.00
21834;DHT22;11079;51.092;3.458;2023-06-14T07:38:21;36.80;60.90
21834;DHT22;11079;51.092;3.458;2023-06-14T07:40:46;36.90;59.70
21834;DHT22;11079;51.092;3.458;2023-06-14T07:43:12;37.20;60.00
21834;DHT22;11079;51.092;3.458;2023-06-14T07:45:38;37.90;59.00
21834;DHT22;11079;51.092;3.458;2023-06-14T07:48:03;37.60;58.50
21834;DHT22;11079;51.092;3.458;2023-06-14T07:50:29;38.10;58.50
21834;DHT22;11079;51.092;3.458;2023-06-14T07:52:55;38.20;57.00
21834;DHT22;11079;51.092;3.458;2023-06-14T07:55:21;38.30;57.80
21834;DHT22;11079;51.092;3.458;2023-06-14T07:57:46;38.20;56.30
21834;DHT22;11079;51.092;3.458;2023-06-14T08:00:12;37.70;56.90
21834;DHT22;11079;51.092;3.458;2023-06-14T08:02:42;37.70;56.40
21834;DHT22;11079;51.092;3.458;2023-06-14T08:05:10;36.80;57.20
21834;DHT22;11079;51.092;3.458;2023-06-14T08:07:37;36.70;57.80
21834;DHT22;11079;51.092;3.458;2023-06-14T08:10:07;37.50;57.60
21834;DHT22;11079;51.092;3.458;2023-06-14T08:12:34;38.50;56.30
21834;DHT22;11079;51.092;3.458;2023-06-14T08:15:00;39.50;54.70
21834;DHT22;11079;51.092;3.458;2023-06-14T08:17:26;40.40;55.20
21834;DHT22;11079;51.092;3.458;2023-06-14T08:19:53;41.00;52.90
21834;DHT22;11079;51.092;3.458;2023-06-14T08:22:22;40.20;52.00
21834;DHT22;11079;51.092;3.458;2023-06-14T08:24:50;40.50;53.00
21834;DHT22;11079;51.092;3.458;2023-06-14T08:27:15;40.40;50.90
21834;DHT22;11079;51.092;3.458;2023-06-14T08:29:41;40.00;52.40
21834;DHT22;11079;51.092;3.458;2023-06-14T08:32:08;40.20;51.40
21834;DHT22;11079;51.092;3.458;2023-06-14T08:34:37;40.00;51.80
21834;DHT22;11079;51.092;3.458;2023-06-14T08:37:14;39.90;52.10
21834;DHT22;11079;51.092;3.458;2023-06-14T08:39:40;40.50;51.80
21834;DHT22;11079;51.092;3.458;2023-06-14T08:42:19;41.00;50.80
21834;DHT22;11079;51.092;3.458;2023-06-14T08:44:50;42.10;51.00
21834;DHT22;11079;51.092;3.458;2023-06-14T08:47:54;42.40;48.80
21834;DHT22;11079;51.092;3.458;2023-06-14T08:50:24;41.80;49.10
21834;DHT22;11079;51.092;3.458;2023-06-14T08:53:02;42.20;48.70
21834;DHT22;11079;51.092;3.458;2023-06-14T08:55:29;42.10;48.30
21834;DHT22;11079;51.092;3.458;2023-06-14T08:57:59;41.90;47.30
21834;DHT22;11079;51.092;3.458;2023-06-14T09:00:27;41.60;48.30
21834;DHT22;11079;51.092;3.458;2023-06-14T09:02:53;41.60;49.80
21834;DHT22;11079;51.092;3.458;2023-06-14T09:05:24;40.90;47.30
21834;DHT22;11079;51.092;3.458;2023-06-14T09:07:54;40.40;48.80
21834;DHT22;11079;51.092;3.458;2023-06-14T09:10:27;40.90;47.40
21834;DHT22;11079;51.092;3.458;2023-06-14T09:12:53;41.00;47.50
21834;DHT22;11079;51.092;3.458;2023-06-14T09:15:19;40.70;46.10
21834;DHT22;11079;51.092;3.458;2023-06-14T09:17:46;40.40;47.00
21834;DHT22;11079;51.092;3.458;2023-06-14T09:20:12;40.70;47.70
21834;DHT22;11079;51.092;3.458;2023-06-14T09:22:44;41.70;47.40
21834;DHT22;11079;51.092;3.458;2023-06-14T09:25:10;40.10;45.20
21834;DHT22;11079;51.092;3.458;2023-06-14T09:27:38;39.80;45.80
21834;DHT22;11079;51.092;3.458;2023-06-14T09:30:10;39.50;46.50
21834;DHT22;11079;51.092;3.458;2023-06-14T09:32:39;39.90;46.90
21834;DHT22;11079;51.092;3.458;2023-06-14T09:35:08;40.90;47.60
21834;DHT22;11079;51.092;3.458;2023-06-14T09:37:35;41.50;47.40
21834;DHT22;11079;51.092;3.458;2023-06-14T09:40:12;41.00;46.30
21834;DHT22;11079;51.092;3.458;2023-06-14T09:42:38;41.30;45.90
21834;DHT22;11079;51.092;3.458;2023-06-14T09:45:11;39.80;45.60
21834;DHT22;11079;51.092;3.458;2023-06-14T09:47:38;39.10;45.90
21834;DHT22;11079;51.092;3.458;2023-06-14T09:50:10;39.30;47.10
21834;DHT22;11079;51.092;3.458;2023-06-14T09:52:36;39.00;46.10
21834;DHT22;11079;51.092;3.458;2023-06-14T09:55:10;39.00;46.10
21834;DHT22;11079;51.092;3.458;2023-06-14T09:57:37;38.90;46.10
21834;DHT22;11079;51.092;3.458;2023-06-14T10:00:07;38.80;46.90
21834;DHT22;11079;51.092;3.458;2023-06-14T10:02:37;38.60;46.50
21834;DHT22;11079;51.092;3.458;2023-06-14T10:05:08;38.40;46.10
21834;DHT22;11079;51.092;3.458;2023-06-14T10:10:09;39.00;46.20
21834;DHT22;11079;51.092;3.458;2023-06-14T10:12:35;39.40;46.50
21834;DHT22;11079;51.092;3.458;2023-06-14T10:15:02;40.60;46.90
21834;DHT22;11079;51.092;3.458;2023-06-14T10:20:55;40.00;45.60
21834;DHT22;11079;51.092;3.458;2023-06-14T10:23:18;40.20;46.00
21834;DHT22;11079;51.092;3.458;2023-06-14T10:25:45;39.60;45.00
21834;DHT22;11079;51.092;3.458;2023-06-14T10:28:20;39.70;44.30
21834;DHT22;11079;51.092;3.458;2023-06-14T10:31:04;40.50;45.30
21834;DHT22;11079;51.092;3.458;2023-06-14T10:33:32;40.30;45.40
21834;DHT22;11079;51.092;3.458;2023-06-14T10:36:30;41.00;45.90
21834;DHT22;11079;51.092;3.458;2023-06-14T10:39:17;40.90;44.60
21834;DHT22;11079;51.092;3.458;2023-06-14T10:41:54;40.90;44.80
21834;DHT22;11079;51.092;3.458;2023-06-14T10:46:49;40.60;44.70
21834;DHT22;11079;51.092;3.458;2023-06-14T10:49:45;40.90;45.20
21834;DHT22;11079;51.092;3.458;2023-06-14T10:52:15;40.20;44.20
21834;DHT22;11079;51.092;3.458;2023-06-14T10:55:10;39.90;44.80
21834;DHT22;11079;51.092;3.458;2023-06-14T10:57:51;40.30;45.20
21834;DHT22;11079;51.092;3.458;2023-06-14T11:00:33;40.70;44.30
21834;DHT22;11079;51.092;3.458;2023-06-14T11:05:30;40.60;43.40
21834;DHT22;11079;51.092;3.458;2023-06-14T11:13:03;40.40;45.70
21834;DHT22;11079;51.092;3.458;2023-06-14T11:15:47;40.50;43.80
21834;DHT22;11079;51.092;3.458;2023-06-14T11:18:13;40.60;44.70
21834;DHT22;11079;51.092;3.458;2023-06-14T11:20:40;40.90;43.90
21834;DHT22;11079;51.092;3.458;2023-06-14T11:23:06;40.10;43.80
21834;DHT22;11079;51.092;3.458;2023-06-14T11:25:35;39.80;45.20
21834;DHT22;11079;51.092;3.458;2023-06-14T11:28:07;40.70;44.40
21834;DHT22;11079;51.092;3.458;2023-06-14T11:30:33;41.90;44.60
21834;DHT22;11079;51.092;3.458;2023-06-14T11:32:58;41.90;44.00
21834;DHT22;11079;51.092;3.458;2023-06-14T11:35:25;42.40;45.40
21834;DHT22;11079;51.092;3.458;2023-06-14T11:37:56;41.90;45.00
21834;DHT22;11079;51.092;3.458;2023-06-14T11:40:24;41.10;44.80
21834;DHT22;11079;51.092;3.458;2023-06-14T11:43:01;42.00;44.30
21834;DHT22;11079;51.092;3.458;2023-06-14T11:45:27;41.60;45.70
21834;DHT22;11079;51.092;3.458;2023-06-14T11:47:55;41.50;45.40
21834;DHT22;11079;51.092;3.458;2023-06-14T11:50:22;41.30;43.80
21834;DHT22;11079;51.092;3.458;2023-06-14T11:52:59;41.10;44.00
21834;DHT22;11079;51.092;3.458;2023-06-14T11:55:29;40.90;45.50
21834;DHT22;11079;51.092;3.458;2023-06-14T11:57:55;40.30;45.50
21834;DHT22;11079;51.092;3.458;2023-06-14T12:00:25;40.40;45.30
21834;DHT22;11079;51.092;3.458;2023-06-14T12:02:54;39.80;45.60
21834;DHT22;11079;51.092;3.458;2023-06-14T12:05:22;39.70;47.50
21834;DHT22;11079;51.092;3.458;2023-06-14T12:07:49;39.60;46.00
21834;DHT22;11079;51.092;3.458;2023-06-14T12:10:20;39.50;47.30
21834;DHT22;11079;51.092;3.458;2023-06-14T12:12:46;40.20;45.80
21834;DHT22;11079;51.092;3.458;2023-06-14T12:15:13;40.10;43.60
21834;DHT22;11079;51.092;3.458;2023-06-14T12:17:39;40.50;44.00
21834;DHT22;11079;51.092;3.458;2023-06-14T12:20:09;41.10;44.00
21834;DHT22;11079;51.092;3.458;2023-06-14T12:22:58;41.40;43.10
21834;DHT22;11079;51.092;3.458;2023-06-14T12:25:30;41.60;43.30
21834;DHT22;11079;51.092;3.458;2023-06-14T12:28:03;42.30;43.00
21834;DHT22;11079;51.092;3.458;2023-06-14T12:30:30;42.70;41.90
21834;DHT22;11079;51.092;3.458;2023-06-14T12:32:57;42.60;42.90
21834;DHT22;11079;51.092;3.458;2023-06-14T12:35:30;42.20;42.90
21834;DHT22;11079;51.092;3.458;2023-06-14T12:37:55;42.70;42.70
21834;DHT22;11079;51.092;3.458;2023-06-14T12:40:27;42.40;42.60
21834;DHT22;11079;51.092;3.458;2023-06-14T12:42:53;41.70;42.20
21834;DHT22;11079;51.092;3.458;2023-06-14T12:45:18;41.40;43.90
21834;DHT22;11079;51.092;3.458;2023-06-14T12:47:44;40.70;43.40
21834;DHT22;11079;51.092;3.458;2023-06-14T12:50:10;41.10;42.60
21834;DHT22;11079;51.092;3.458;2023-06-14T12:52:37;41.00;43.70
21834;DHT22;11079;51.092;3.458;2023-06-14T12:55:05;41.40;43.60
21834;DHT22;11079;51.092;3.458;2023-06-14T12:57:33;40.90;42.60
21834;DHT22;11079;51.092;3.458;2023-06-14T13:00:03;40.10;44.10
21834;DHT22;11079;51.092;3.458;2023-06-14T13:02:33;40.40;43.90
21834;DHT22;11079;51.092;3.458;2023-06-14T13:05:00;40.80;43.90
21834;DHT22;11079;51.092;3.458;2023-06-14T13:07:29;40.60;43.60
21834;DHT22;11079;51.092;3.458;2023-06-14T13:09:58;40.40;43.60
21834;DHT22;11079;51.092;3.458;2023-06-14T13:12:24;40.80;44.00
21834;DHT22;11079;51.092;3.458;2023-06-14T13:14:51;40.70;42.90
21834;DHT22;11079;51.092;3.458;2023-06-14T13:17:16;40.40;42.50
21834;DHT22;11079;51.092;3.458;2023-06-14T13:19:42;41.30;44.10
21834;DHT22;11079;51.092;3.458;2023-06-14T13:22:08;41.40;43.60
21834;DHT22;11079;51.092;3.458;2023-06-14T13:24:34;40.70;43.40
21834;DHT22;11079;51.092;3.458;2023-06-14T13:27:00;39.30;45.20
21834;DHT22;11079;51.092;3.458;2023-06-14T13:29:32;39.20;45.90
21834;DHT22;11079;51.092;3.458;2023-06-14T13:31:58;38.40;44.00
21834;DHT22;11079;51.092;3.458;2023-06-14T13:34:24;37.90;45.20
21834;DHT22;11079;51.092;3.458;2023-06-14T13:36:50;38.40;46.00
21834;DHT22;11079;51.092;3.458;2023-06-14T13:39:16;38.70;45.30
21834;DHT22;11079;51.092;3.458;2023-06-14T13:41:47;38.30;45.90
21834;DHT22;11079;51.092;3.458;2023-06-14T13:44:14;38.70;46.80
21834;DHT22;11079;51.092;3.458;2023-06-14T13:46:41;37.90;46.30
21834;DHT22;11079;51.092;3.458;2023-06-14T13:49:09;37.40;46.10
21834;DHT22;11079;51.092;3.458;2023-06-14T13:51:36;37.00;45.90
21834;DHT22;11079;51.092;3.458;2023-06-14T13:54:01;37.30;46.30
21834;DHT22;11079;51.092;3.458;2023-06-14T13:56:37;36.50;47.30
21834;DHT22;11079;51.092;3.458;2023-06-14T13:59:07;35.40;50.40
21834;DHT22;11079;51.092;3.458;2023-06-14T14:01:33;34.90;50.80
21834;DHT22;11079;51.092;3.458;2023-06-14T14:04:00;34.10;50.30
21834;DHT22;11079;51.092;3.458;2023-06-14T14:06:26;33.40;51.70
21834;DHT22;11079;51.092;3.458;2023-06-14T14:09:02;32.80;52.20
21834;DHT22;11079;51.092;3.458;2023-06-14T14:11:28;32.40;53.00
21834;DHT22;11079;51.092;3.458;2023-06-14T14:13:54;32.40;52.70
21834;DHT22;11079;51.092;3.458;2023-06-14T14:16:20;32.30;52.60
21834;DHT22;11079;51.092;3.458;2023-06-14T14:18:46;32.30;52.90
21834;DHT22;11079;51.092;3.458;2023-06-14T14:21:12;32.40;53.20
21834;DHT22;11079;51.092;3.458;2023-06-14T14:23:40;32.20;51.20
21834;DHT22;11079;51.092;3.458;2023-06-14T14:26:06;31.80;53.50
21834;DHT22;11079;51.092;3.458;2023-06-14T14:28:31;31.70;52.90
21834;DHT22;11079;51.092;3.458;2023-06-14T14:31:17;31.40;53.80
21834;DHT22;11079;51.092;3.458;2023-06-14T14:33:44;30.90;54.40
21834;DHT22;11079;51.092;3.458;2023-06-14T14:36:09;30.80;55.40
21834;DHT22;11079;51.092;3.458;2023-06-14T14:38:35;30.60;54.00
21834;DHT22;11079;51.092;3.458;2023-06-14T14:41:01;30.50;54.70
21834;DHT22;11079;51.092;3.458;2023-06-14T14:43:26;30.50;55.50
21834;DHT22;11079;51.092;3.458;2023-06-14T14:45:57;30.50;55.90
21834;DHT22;11079;51.092;3.458;2023-06-14T14:48:24;30.50;54.90
21834;DHT22;11079;51.092;3.458;2023-06-14T14:50:51;30.40;55.60
21834;DHT22;11079;51.092;3.458;2023-06-14T14:53:17;30.50;55.10
21834;DHT22;11079;51.092;3.458;2023-06-14T14:55:44;30.50;56.00
21834;DHT22;11079;51.092;3.458;2023-06-14T14:58:09;30.40;56.00
21834;DHT22;11079;51.092;3.458;2023-06-14T15:00:35;30.30;55.30
21834;DHT22;11079;51.092;3.458;2023-06-14T15:03:01;30.30;55.80
21834;DHT22;11079;51.092;3.458;2023-06-14T15:05:26;30.30;55.30
21834;DHT22;11079;51.092;3.458;2023-06-14T15:07:54;30.30;55.80
21834;DHT22;11079;51.092;3.458;2023-06-14T15:10:19;30.20;55.70
21834;DHT22;11079;51.092;3.458;2023-06-14T15:12:45;30.10;55.70
21834;DHT22;11079;51.092;3.458;2023-06-14T15:15:10;29.90;55.90
21834;DHT22;11079;51.092;3.458;2023-06-14T15:17:36;29.90;55.50
21834;DHT22;11079;51.092;3.458;2023-06-14T15:20:02;30.00;55.50
21834;DHT22;11079;51.092;3.458;2023-06-14T15:22:28;30.00;55.80
21834;DHT22;11079;51.092;3.458;2023-06-14T15:24:54;29.90;54.40
21834;DHT22;11079;51.092;3.458;2023-06-14T15:27:19;30.00;56.40
21834;DHT22;11079;51.092;3.458;2023-06-14T15:29:45;29.90;55.40
21834;DHT22;11079;51.092;3.458;2023-06-14T15:32:11;29.80;55.00
21834;DHT22;11079;51.092;3.458;2023-06-14T15:34:37;29.70;54.90
21834;DHT22;11079;51.092;3.458;2023-06-14T15:37:07;29.50;55.90
21834;DHT22;11079;51.092;3.458;2023-06-14T15:39:33;29.50;55.20
21834;DHT22;11079;51.092;3.458;2023-06-14T15:41:59;29.40;55.70
21834;DHT22;11079;51.092;3.458;2023-06-14T15:44:26;29.30;55.20
21834;DHT22;11079;51.092;3.458;2023-06-14T15:46:52;29.10;55.40
21834;DHT22;11079;51.092;3.458;2023-06-14T15:49:18;29.10;55.60
21834;DHT22;11079;51.092;3.458;2023-06-14T15:51:44;28.90;55.10
21834;DHT22;11079;51.092;3.458;2023-06-14T15:54:10;28.90;55.60
21834;DHT22;11079;51.092;3.458;2023-06-14T15:56:36;28.90;56.10
21834;DHT22;11079;51.092;3.458;2023-06-14T15:59:01;29.00;55.60
21834;DHT22;11079;51.092;3.458;2023-06-14T16:01:28;29.00;55.30
21834;DHT22;11079;51.092;3.458;2023-06-14T16:03:53;28.90;55.50
21834;DHT22;11079;51.092;3.458;2023-06-14T16:06:21;28.80;55.50
21834;DHT22;11079;51.092;3.458;2023-06-14T16:08:47;28.80;55.30
21834;DHT22;11079;51.092;3.458;2023-06-14T16:11:13;28.70;55.90
21834;DHT22;11079;51.092;3.458;2023-06-14T16:13:40;28.80;56.60
21834;DHT22;11079;51.092;3.458;2023-06-14T16:16:10;28.80;55.60
21834;DHT22;11079;51.092;3.458;2023-06-14T16:18:36;28.70;55.60
21834;DHT22;11079;51.092;3.458;2023-06-14T16:21:01;28.60;55.50
21834;DHT22;11079;51.092;3.458;2023-06-14T16:23:29;28.50;56.00
21834;DHT22;11079;51.092;3.458;2023-06-14T16:25:55;28.40;56.10
21834;DHT22;11079;51.092;3.458;2023-06-14T16:28:21;28.30;56.00
21834;DHT22;11079;51.092;3.458;2023-06-14T16:30:47;28.30;56.00
21834;DHT22;11079;51.092;3.458;2023-06-14T16:33:13;28.30;55.80
21834;DHT22;11079;51.092;3.458;2023-06-14T16:35:38;28.10;56.30
21834;DHT22;11079;51.092;3.458;2023-06-14T16:38:04;28.10;56.60
21834;DHT22;11079;51.092;3.458;2023-06-14T16:40:30;28.00;57.10
21834;DHT22;11079;51.092;3.458;2023-06-14T16:42:56;28.00;57.00
21834;DHT22;11079;51.092;3.458;2023-06-14T16:45:21;28.00;56.90
21834;DHT22;11079;51.092;3.458;2023-06-14T16:47:48;28.00;57.00
21834;DHT22;11079;51.092;3.458;2023-06-14T16:50:14;28.00;57.30
21834;DHT22;11079;51.092;3.458;2023-06-14T16:52:40;27.90;57.60
21834;DHT22;11079;51.092;3.458;2023-06-14T16:55:06;28.10;57.90
21834;DHT22;11079;51.092;3.458;2023-06-14T16:57:32;28.00;57.80
21834;DHT22;11079;51.092;3.458;2023-06-14T16:59:58;28.00;57.60
21834;DHT22;11079;51.092;3.458;2023-06-14T17:02:24;28.00;57.20
21834;DHT22;11079;51.092;3.458;2023-06-14T17:04:49;28.00;57.40
21834;DHT22;11079;51.092;3.458;2023-06-14T17:07:15;28.10;57.80
21834;DHT22;11079;51.092;3.458;2023-06-14T17:09:40;28.00;56.20
21834;DHT22;11079;51.092;3.458;2023-06-14T17:12:07;27.90;56.70
21834;DHT22;11079;51.092;3.458;2023-06-14T17:14:33;27.80;57.50
21834;DHT22;11079;51.092;3.458;2023-06-14T17:16:59;27.70;57.00
21834;DHT22;11079;51.092;3.458;2023-06-14T17:19:25;27.70;57.40
21834;DHT22;11079;51.092;3.458;2023-06-14T17:21:51;27.60;56.80
21834;DHT22;11079;51.092;3.458;2023-06-14T17:24:19;27.50;57.70
21834;DHT22;11079;51.092;3.458;2023-06-14T17:26:44;27.60;57.80
21834;DHT22;11079;51.092;3.458;2023-06-14T17:29:10;27.50;57.90
21834;DHT22;11079;51.092;3.458;2023-06-14T17:31:35;27.40;57.30